sensor_id;sensor_type;location;lat;lon;timestamp;pressure;altitude;pressure_sealevel;temperature;humidity
1652;BME280;823;49.028;8.454;2022-09-12T00:04:31;100535.00;;;18.71;59.75
1652;BME280;823;49.028;8.454;2022-09-12T00:09:31;100529.63;;;18.60;60.41
1652;BME280;823;49.028;8.454;2022-09-12T00:14:34;100532.63;;;18.53;60.47
1652;BME280;823;49.028;8.454;2022-09-12T00:19:34;100529.03;;;18.42;60.37
1652;BME280;823;49.028;8.454;2022-09-12T00:24:34;100527.81;;;18.33;60.72
1652;BME280;823;49.028;8.454;2022-09-12T00:29:35;100523.91;;;18.26;61.35
1652;BME280;823;49.028;8.454;2022-09-12T00:34:35;100520.56;;;18.24;60.63
1652;BME280;823;49.028;8.454;2022-09-12T00:39:36;100518.09;;;18.20;60.25
1652;BME280;823;49.028;8.454;2022-09-12T00:50:04;100503.84;;;18.12;60.85
1652;BME280;823;49.028;8.454;2022-09-12T00:55:10;100494.59;;;18.06;61.28
1652;BME280;823;49.028;8.454;2022-09-12T01:00:15;100491.78;;;18.09;60.83
1652;BME280;823;49.028;8.454;2022-09-12T01:05:17;100493.66;;;18.07;61.43
1652;BME280;823;49.028;8.454;2022-09-12T01:10:18;100497.88;;;18.10;61.07
1652;BME280;823;49.028;8.454;2022-09-12T01:15:19;100490.09;;;18.08;61.13
1652;BME280;823;49.028;8.454;2022-09-12T01:26:01;100486.94;;;18.03;60.29
1652;BME280;823;49.028;8.454;2022-09-12T01:31:07;100483.97;;;17.95;60.86
1652;BME280;823;49.028;8.454;2022-09-12T01:36:26;100482.63;;;18.02;60.69
1652;BME280;823;49.028;8.454;2022-09-12T01:42:03;100475.53;;;17.90;61.25
1652;BME280;823;49.028;8.454;2022-09-12T01:47:21;100475.72;;;17.86;60.38
1652;BME280;823;49.028;8.454;2022-09-12T01:57:31;100472.06;;;17.75;60.50
1652;BME280;823;49.028;8.454;2022-09-12T02:02:38;100462.47;;;17.75;61.15
1652;BME280;823;49.028;8.454;2022-09-12T02:07:48;100447.91;;;17.71;60.82
1652;BME280;823;49.028;8.454;2022-09-12T02:12:55;100449.75;;;17.69;60.58
1652;BME280;823;49.028;8.454;2022-09-12T02:17:58;100452.88;;;17.61;60.58
1652;BME280;823;49.028;8.454;2022-09-12T02:23:05;100447.78;;;17.58;60.64
1652;BME280;823;49.028;8.454;2022-09-12T02:28:11;100441.81;;;17.42;60.26
1652;BME280;823;49.028;8.454;2022-09-12T02:33:41;100429.03;;;17.37;60.13
1652;BME280;823;49.028;8.454;2022-09-12T02:38:45;100436.13;;;17.21;61.19
1652;BME280;823;49.028;8.454;2022-09-12T02:43:47;100434.00;;;17.13;61.08
1652;BME280;823;49.028;8.454;2022-09-12T02:48:48;100437.44;;;17.13;61.38
1652;BME280;823;49.028;8.454;2022-09-12T02:53:48;100431.44;;;16.97;61.83
1652;BME280;823;49.028;8.454;2022-09-12T02:58:48;100432.19;;;16.99;61.51
1652;BME280;823;49.028;8.454;2022-09-12T03:09:48;100433.38;;;16.93;62.25
1652;BME280;823;49.028;8.454;2022-09-12T03:20:24;100428.38;;;16.74;62.56
1652;BME280;823;49.028;8.454;2022-09-12T03:25:35;100433.59;;;16.74;62.50
1652;BME280;823;49.028;8.454;2022-09-12T03:30:39;100437.66;;;16.64;63.55
1652;BME280;823;49.028;8.454;2022-09-12T03:35:40;100428.72;;;16.68;62.38
1652;BME280;823;49.028;8.454;2022-09-12T03:40:41;100431.41;;;16.66;62.44
1652;BME280;823;49.028;8.454;2022-09-12T03:45:41;100425.56;;;16.63;63.07
1652;BME280;823;49.028;8.454;2022-09-12T03:50:42;100424.78;;;16.61;63.07
1652;BME280;823;49.028;8.454;2022-09-12T03:55:42;100427.69;;;16.56;63.05
1652;BME280;823;49.028;8.454;2022-09-12T04:00:42;100431.59;;;16.63;62.54
1652;BME280;823;49.028;8.454;2022-09-12T04:05:43;100432.31;;;16.51;63.26
1652;BME280;823;49.028;8.454;2022-09-12T04:10:43;100436.69;;;16.50;62.80
1652;BME280;823;49.028;8.454;2022-09-12T04:15:54;100428.22;;;16.61;62.60
1652;BME280;823;49.028;8.454;2022-09-12T04:20:55;100424.19;;;16.56;62.49
1652;BME280;823;49.028;8.454;2022-09-12T04:25:57;100421.97;;;16.49;61.97
1652;BME280;823;49.028;8.454;2022-09-12T04:31:03;100420.88;;;16.38;62.24
1652;BME280;823;49.028;8.454;2022-09-12T04:36:13;100407.72;;;16.39;62.87
1652;BME280;823;49.028;8.454;2022-09-12T04:41:21;100414.72;;;16.55;62.79
1652;BME280;823;49.028;8.454;2022-09-12T04:46:21;100419.56;;;16.61;62.67
1652;BME280;823;49.028;8.454;2022-09-12T04:51:24;100410.91;;;16.60;62.33
1652;BME280;823;49.028;8.454;2022-09-12T04:56:27;100413.59;;;16.59;62.29
1652;BME280;823;49.028;8.454;2022-09-12T05:01:28;100412.09;;;16.55;62.72
1652;BME280;823;49.028;8.454;2022-09-12T05:06:35;100415.44;;;16.57;61.44
1652;BME280;823;49.028;8.454;2022-09-12T05:11:37;100419.88;;;16.40;62.57
1652;BME280;823;49.028;8.454;2022-09-12T05:16:38;100418.03;;;16.42;62.56
1652;BME280;823;49.028;8.454;2022-09-12T05:21:40;100423.75;;;16.33;63.27
1652;BME280;823;49.028;8.454;2022-09-12T05:26:40;100427.38;;;16.30;63.17
1652;BME280;823;49.028;8.454;2022-09-12T05:31:40;100427.88;;;16.37;62.88
1652;BME280;823;49.028;8.454;2022-09-12T05:36:40;100423.72;;;16.49;62.85
1652;BME280;823;49.028;8.454;2022-09-12T05:41:41;100432.63;;;16.61;62.45
1652;BME280;823;49.028;8.454;2022-09-12T05:46:43;100435.03;;;16.64;62.85
1652;BME280;823;49.028;8.454;2022-09-12T05:51:44;100436.94;;;16.76;62.31
1652;BME280;823;49.028;8.454;2022-09-12T05:56:45;100433.66;;;16.89;62.14
1652;BME280;823;49.028;8.454;2022-09-12T06:01:46;100428.63;;;17.00;62.24
1652;BME280;823;49.028;8.454;2022-09-12T06:06:47;100435.28;;;17.20;61.49
1652;BME280;823;49.028;8.454;2022-09-12T06:11:47;100435.28;;;17.34;61.57
1652;BME280;823;49.028;8.454;2022-09-12T06:16:48;100426.44;;;17.51;61.19
1652;BME280;823;49.028;8.454;2022-09-12T06:21:48;100435.38;;;17.62;60.37
1652;BME280;823;49.028;8.454;2022-09-12T06:26:49;100437.34;;;17.73;60.46
1652;BME280;823;49.028;8.454;2022-09-12T06:31:51;100443.94;;;17.93;61.07
1652;BME280;823;49.028;8.454;2022-09-12T06:36:52;100435.69;;;18.13;60.06
1652;BME280;823;49.028;8.454;2022-09-12T06:41:52;100421.22;;;18.35;59.74
1652;BME280;823;49.028;8.454;2022-09-12T06:46:52;100413.72;;;18.56;59.27
1652;BME280;823;49.028;8.454;2022-09-12T06:51:53;100426.44;;;18.75;58.97
1652;BME280;823;49.028;8.454;2022-09-12T06:56:53;100422.81;;;18.91;58.48
1652;BME280;823;49.028;8.454;2022-09-12T07:01:53;100425.97;;;19.21;57.24
1652;BME280;823;49.028;8.454;2022-09-12T07:06:54;100429.94;;;19.40;56.50
1652;BME280;823;49.028;8.454;2022-09-12T07:11:54;100431.38;;;19.57;55.40
1652;BME280;823;49.028;8.454;2022-09-12T07:16:55;100433.34;;;19.79;55.67
1652;BME280;823;49.028;8.454;2022-09-12T07:21:55;100429.06;;;19.65;55.17
1652;BME280;823;49.028;8.454;2022-09-12T07:26:55;100430.91;;;19.89;56.11
1652;BME280;823;49.028;8.454;2022-09-12T07:31:56;100438.91;;;20.12;55.99
1652;BME280;823;49.028;8.454;2022-09-12T07:36:56;100437.19;;;20.23;55.47
1652;BME280;823;49.028;8.454;2022-09-12T07:41:56;100433.78;;;20.34;55.32
1652;BME280;823;49.028;8.454;2022-09-12T07:46:57;100423.25;;;20.58;54.34
1652;BME280;823;49.028;8.454;2022-09-12T07:51:58;100425.03;;;20.58;53.10
1652;BME280;823;49.028;8.454;2022-09-12T07:56:58;100427.03;;;20.54;52.81
1652;BME280;823;49.028;8.454;2022-09-12T08:01:58;100430.34;;;20.69;52.85
1652;BME280;823;49.028;8.454;2022-09-12T08:06:58;100430.38;;;20.81;53.15
1652;BME280;823;49.028;8.454;2022-09-12T08:11:59;100438.53;;;20.89;52.91
1652;BME280;823;49.028;8.454;2022-09-12T08:16:59;100433.88;;;20.92;52.47
1652;BME280;823;49.028;8.454;2022-09-12T08:22:00;100441.41;;;20.97;52.48
1652;BME280;823;49.028;8.454;2022-09-12T08:27:00;100433.88;;;20.92;52.36
1652;BME280;823;49.028;8.454;2022-09-12T08:32:00;100441.22;;;21.23;52.02
1652;BME280;823;49.028;8.454;2022-09-12T08:37:01;100427.22;;;21.45;51.75
1652;BME280;823;49.028;8.454;2022-09-12T08:42:04;100427.47;;;21.65;52.90
1652;BME280;823;49.028;8.454;2022-09-12T08:57:42;100417.56;;;22.12;50.35
1652;BME280;823;49.028;8.454;2022-09-12T09:13:29;100415.53;;;22.69;48.98
1652;BME280;823;49.028;8.454;2022-09-12T09:18:51;100414.25;;;22.85;49.58
1652;BME280;823;49.028;8.454;2022-09-12T09:23:58;100426.50;;;22.95;48.45
1652;BME280;823;49.028;8.454;2022-09-12T09:29:15;100422.97;;;23.27;49.52
1652;BME280;823;49.028;8.454;2022-09-12T09:34:22;100416.88;;;23.37;49.01
1652;BME280;823;49.028;8.454;2022-09-12T09:39:38;100406.22;;;23.48;48.04
1652;BME280;823;49.028;8.454;2022-09-12T09:44:41;100409.91;;;23.67;47.91
1652;BME280;823;49.028;8.454;2022-09-12T09:49:42;100411.44;;;23.69;47.33
1652;BME280;823;49.028;8.454;2022-09-12T09:54:49;100407.97;;;23.78;46.72
1652;BME280;823;49.028;8.454;2022-09-12T09:59:51;100408.88;;;23.89;47.38
1652;BME280;823;49.028;8.454;2022-09-12T10:04:53;100402.63;;;24.00;46.62
1652;BME280;823;49.028;8.454;2022-09-12T10:20:41;100390.66;;;24.54;45.79
1652;BME280;823;49.028;8.454;2022-09-12T10:25:47;100381.44;;;24.58;46.73
1652;BME280;823;49.028;8.454;2022-09-12T10:30:53;100377.94;;;24.87;45.76
1652;BME280;823;49.028;8.454;2022-09-12T10:35:55;100372.47;;;24.98;44.03
1652;BME280;823;49.028;8.454;2022-09-12T10:41:03;100371.59;;;25.08;43.57
1652;BME280;823;49.028;8.454;2022-09-12T10:56:32;100342.38;;;25.37;42.60
1652;BME280;823;49.028;8.454;2022-09-12T11:27:36;100314.69;;;26.22;39.78
1652;BME280;823;49.028;8.454;2022-09-12T11:33:04;100309.66;;;26.10;39.26
1652;BME280;823;49.028;8.454;2022-09-12T11:48:46;100294.53;;;26.55;37.12
1652;BME280;823;49.028;8.454;2022-09-12T12:04:38;100275.75;;;26.75;36.46
1652;BME280;823;49.028;8.454;2022-09-12T12:09:46;100271.53;;;26.64;35.45
1652;BME280;823;49.028;8.454;2022-09-12T12:14:49;100265.91;;;26.93;36.19
1652;BME280;823;49.028;8.454;2022-09-12T12:20:02;100259.44;;;26.96;34.79
1652;BME280;823;49.028;8.454;2022-09-12T12:40:34;100236.16;;;27.41;34.30
1652;BME280;823;49.028;8.454;2022-09-12T12:45:46;100234.66;;;27.46;33.93
1652;BME280;823;49.028;8.454;2022-09-12T12:50:46;100222.56;;;27.60;34.76
1652;BME280;823;49.028;8.454;2022-09-12T12:55:49;100228.03;;;27.75;34.47
1652;BME280;823;49.028;8.454;2022-09-12T13:01:17;100223.19;;;27.95;34.30
1652;BME280;823;49.028;8.454;2022-09-12T13:06:44;100219.06;;;27.84;32.74
1652;BME280;823;49.028;8.454;2022-09-12T13:11:46;100213.06;;;27.99;32.91
1652;BME280;823;49.028;8.454;2022-09-12T13:16:59;100204.91;;;28.17;33.07
1652;BME280;823;49.028;8.454;2022-09-12T13:27:15;100195.09;;;28.17;29.79
1652;BME280;823;49.028;8.454;2022-09-12T13:32:17;100193.44;;;28.25;30.41
1652;BME280;823;49.028;8.454;2022-09-12T13:37:26;100178.28;;;28.33;30.86
1652;BME280;823;49.028;8.454;2022-09-12T13:42:43;100173.41;;;28.37;32.05
1652;BME280;823;49.028;8.454;2022-09-12T13:47:50;100176.03;;;28.45;31.12
1652;BME280;823;49.028;8.454;2022-09-12T13:52:55;100170.56;;;28.47;30.86
1652;BME280;823;49.028;8.454;2022-09-12T13:57:59;100158.69;;;28.26;30.63
1652;BME280;823;49.028;8.454;2022-09-12T14:03:00;100152.56;;;28.57;31.11
1652;BME280;823;49.028;8.454;2022-09-12T14:08:39;100150.44;;;28.52;29.79
1652;BME280;823;49.028;8.454;2022-09-12T14:13:40;100152.59;;;28.49;29.77
1652;BME280;823;49.028;8.454;2022-09-12T14:18:41;100149.06;;;28.65;29.62
1652;BME280;823;49.028;8.454;2022-09-12T14:23:45;100140.91;;;28.66;29.52
1652;BME280;823;49.028;8.454;2022-09-12T14:28:47;100132.94;;;28.58;28.96
1652;BME280;823;49.028;8.454;2022-09-12T14:33:53;100137.91;;;28.61;28.83
1652;BME280;823;49.028;8.454;2022-09-12T14:39:00;100125.59;;;28.60;29.48
1652;BME280;823;49.028;8.454;2022-09-12T14:44:03;100133.13;;;28.57;29.68
1652;BME280;823;49.028;8.454;2022-09-12T14:49:08;100122.56;;;28.71;29.59
1652;BME280;823;49.028;8.454;2022-09-12T15:04:41;100100.69;;;28.53;29.13
1652;BME280;823;49.028;8.454;2022-09-12T15:09:42;100098.03;;;28.53;28.06
1652;BME280;823;49.028;8.454;2022-09-12T15:14:42;100095.44;;;28.45;28.52
1652;BME280;823;49.028;8.454;2022-09-12T15:19:42;100086.50;;;28.37;29.70
1652;BME280;823;49.028;8.454;2022-09-12T15:24:43;100078.78;;;28.19;29.12
1652;BME280;823;49.028;8.454;2022-09-12T15:29:43;100077.88;;;28.27;29.63
1652;BME280;823;49.028;8.454;2022-09-12T15:34:43;100083.22;;;28.27;29.34
1652;BME280;823;49.028;8.454;2022-09-12T15:39:44;100081.09;;;28.23;28.93
1652;BME280;823;49.028;8.454;2022-09-12T15:44:45;100076.28;;;28.18;30.59
1652;BME280;823;49.028;8.454;2022-09-12T15:49:45;100079.97;;;28.09;30.09
1652;BME280;823;49.028;8.454;2022-09-12T15:54:47;100067.22;;;28.04;30.22
1652;BME280;823;49.028;8.454;2022-09-12T15:59:47;100072.03;;;28.00;29.95
1652;BME280;823;49.028;8.454;2022-09-12T16:04:47;100064.22;;;27.99;29.97
1652;BME280;823;49.028;8.454;2022-09-12T16:09:48;100070.06;;;27.86;29.95
1652;BME280;823;49.028;8.454;2022-09-12T16:14:49;100054.84;;;27.72;28.81
1652;BME280;823;49.028;8.454;2022-09-12T16:19:50;100054.13;;;27.86;29.74
1652;BME280;823;49.028;8.454;2022-09-12T16:24:50;100055.13;;;27.85;29.83
1652;BME280;823;49.028;8.454;2022-09-12T16:29:50;100053.81;;;27.81;30.59
1652;BME280;823;49.028;8.454;2022-09-12T16:34:51;100052.66;;;27.75;30.54
1652;BME280;823;49.028;8.454;2022-09-12T16:39:51;100052.53;;;27.68;30.87
1652;BME280;823;49.028;8.454;2022-09-12T16:44:52;100053.22;;;27.62;30.95
1652;BME280;823;49.028;8.454;2022-09-12T16:49:52;100063.69;;;27.56;31.91
1652;BME280;823;49.028;8.454;2022-09-12T16:54:53;100062.72;;;27.32;32.11
1652;BME280;823;49.028;8.454;2022-09-12T16:59:53;100048.75;;;27.30;32.64
1652;BME280;823;49.028;8.454;2022-09-12T17:04:54;100047.25;;;27.27;32.88
1652;BME280;823;49.028;8.454;2022-09-12T17:09:54;100047.94;;;27.13;32.71
1652;BME280;823;49.028;8.454;2022-09-12T17:14:55;100052.91;;;27.08;33.30
1652;BME280;823;49.028;8.454;2022-09-12T17:19:55;100053.44;;;26.95;33.95
1652;BME280;823;49.028;8.454;2022-09-12T17:24:55;100048.28;;;26.77;34.77
1652;BME280;823;49.028;8.454;2022-09-12T17:29:56;100047.06;;;26.63;33.80
1652;BME280;823;49.028;8.454;2022-09-12T17:34:56;100048.22;;;26.52;34.05
1652;BME280;823;49.028;8.454;2022-09-12T17:39:57;100061.09;;;26.39;34.64
1652;BME280;823;49.028;8.454;2022-09-12T17:44:57;100058.09;;;26.25;37.63
1652;BME280;823;49.028;8.454;2022-09-12T17:49:58;100060.16;;;26.05;37.04
1652;BME280;823;49.028;8.454;2022-09-12T17:54:59;100057.91;;;25.84;39.44
1652;BME280;823;49.028;8.454;2022-09-12T17:59:59;100067.06;;;25.63;40.02
1652;BME280;823;49.028;8.454;2022-09-12T18:04:59;100059.50;;;25.42;42.49
1652;BME280;823;49.028;8.454;2022-09-12T18:10:02;100064.41;;;25.19;41.94
1652;BME280;823;49.028;8.454;2022-09-12T18:15:03;100057.09;;;24.95;43.49
1652;BME280;823;49.028;8.454;2022-09-12T18:20:03;100054.59;;;24.75;42.83
1652;BME280;823;49.028;8.454;2022-09-12T18:25:05;100059.72;;;24.59;43.51
1652;BME280;823;49.028;8.454;2022-09-12T18:30:06;100064.16;;;24.40;43.39
1652;BME280;823;49.028;8.454;2022-09-12T18:35:08;100078.44;;;24.20;44.32
1652;BME280;823;49.028;8.454;2022-09-12T18:40:09;100079.38;;;24.01;46.47
1652;BME280;823;49.028;8.454;2022-09-12T18:45:09;100072.19;;;23.83;46.52
1652;BME280;823;49.028;8.454;2022-09-12T18:50:09;100081.00;;;23.64;45.15
1652;BME280;823;49.028;8.454;2022-09-12T18:55:10;100082.56;;;23.47;47.50
1652;BME280;823;49.028;8.454;2022-09-12T19:00:10;100080.66;;;23.29;48.05
1652;BME280;823;49.028;8.454;2022-09-12T19:05:12;100084.84;;;23.12;47.73
1652;BME280;823;49.028;8.454;2022-09-12T19:10:12;100085.91;;;23.00;48.43
1652;BME280;823;49.028;8.454;2022-09-12T19:15:13;100080.63;;;22.90;48.48
1652;BME280;823;49.028;8.454;2022-09-12T19:20:13;100073.69;;;22.70;48.25
1652;BME280;823;49.028;8.454;2022-09-12T19:25:13;100071.56;;;22.64;49.75
1652;BME280;823;49.028;8.454;2022-09-12T19:30:14;100071.00;;;22.40;51.15
1652;BME280;823;49.028;8.454;2022-09-12T19:35:14;100078.13;;;22.28;51.78
1652;BME280;823;49.028;8.454;2022-09-12T19:40:14;100072.56;;;22.22;51.62
1652;BME280;823;49.028;8.454;2022-09-12T19:45:15;100068.66;;;22.16;51.66
1652;BME280;823;49.028;8.454;2022-09-12T19:50:15;100060.56;;;21.98;52.47
1652;BME280;823;49.028;8.454;2022-09-12T19:55:15;100058.19;;;21.95;52.42
1652;BME280;823;49.028;8.454;2022-09-12T20:00:16;100060.06;;;21.83;53.02
1652;BME280;823;49.028;8.454;2022-09-12T20:05:17;100057.13;;;21.76;53.35
1652;BME280;823;49.028;8.454;2022-09-12T20:10:17;100056.25;;;21.66;52.79
1652;BME280;823;49.028;8.454;2022-09-12T20:15:17;100043.63;;;21.60;53.18
1652;BME280;823;49.028;8.454;2022-09-12T20:20:18;100048.03;;;21.59;53.04
1652;BME280;823;49.028;8.454;2022-09-12T20:25:18;100040.78;;;21.52;53.66
1652;BME280;823;49.028;8.454;2022-09-12T20:30:19;100033.81;;;21.41;54.08
1652;BME280;823;49.028;8.454;2022-09-12T20:35:19;100025.72;;;21.33;54.19
1652;BME280;823;49.028;8.454;2022-09-12T20:40:21;100029.84;;;21.25;53.37
1652;BME280;823;49.028;8.454;2022-09-12T20:45:22;100022.06;;;21.24;53.68
1652;BME280;823;49.028;8.454;2022-09-12T20:50:22;100031.53;;;21.15;53.95
1652;BME280;823;49.028;8.454;2022-09-12T20:55:22;100039.00;;;21.10;53.51
1652;BME280;823;49.028;8.454;2022-09-12T21:00:23;100038.81;;;21.02;54.09
1652;BME280;823;49.028;8.454;2022-09-12T21:05:23;100038.69;;;20.92;54.55
1652;BME280;823;49.028;8.454;2022-09-12T21:10:24;100036.72;;;20.84;54.65
1652;BME280;823;49.028;8.454;2022-09-12T21:15:24;100023.63;;;20.73;55.04
1652;BME280;823;49.028;8.454;2022-09-12T21:20:24;100020.91;;;20.52;55.67
1652;BME280;823;49.028;8.454;2022-09-12T21:25:24;100020.81;;;20.42;56.67
1652;BME280;823;49.028;8.454;2022-09-12T21:30:25;100012.44;;;20.48;55.26
1652;BME280;823;49.028;8.454;2022-09-12T21:35:26;100009.81;;;20.48;54.82
1652;BME280;823;49.028;8.454;2022-09-12T21:40:27;100014.72;;;20.41;54.92
1652;BME280;823;49.028;8.454;2022-09-12T21:45:27;100010.56;;;20.39;55.06
1652;BME280;823;49.028;8.454;2022-09-12T21:50:28;100004.81;;;20.34;54.97
1652;BME280;823;49.028;8.454;2022-09-12T21:55:28;99999.81;;;20.31;55.06
1652;BME280;823;49.028;8.454;2022-09-12T22:00:28;99991.84;;;20.21;55.76
1652;BME280;823;49.028;8.454;2022-09-12T22:05:29;100001.88;;;20.27;55.34
1652;BME280;823;49.028;8.454;2022-09-12T22:10:31;99990.19;;;20.20;55.56
1652;BME280;823;49.028;8.454;2022-09-12T22:15:32;99989.97;;;20.23;54.85
1652;BME280;823;49.028;8.454;2022-09-12T22:20:32;99986.72;;;20.19;55.44
1652;BME280;823;49.028;8.454;2022-09-12T22:25:33;99998.56;;;20.14;55.03
1652;BME280;823;49.028;8.454;2022-09-12T22:30:33;99997.72;;;20.02;55.86
1652;BME280;823;49.028;8.454;2022-09-12T22:35:34;100001.66;;;20.07;55.27
1652;BME280;823;49.028;8.454;2022-09-12T22:40:35;99995.84;;;19.93;56.20
1652;BME280;823;49.028;8.454;2022-09-12T22:45:35;99995.13;;;19.90;56.28
1652;BME280;823;49.028;8.454;2022-09-12T22:50:39;99985.25;;;19.83;56.92
1652;BME280;823;49.028;8.454;2022-09-12T22:55:39;99986.19;;;19.82;56.32
1652;BME280;823;49.028;8.454;2022-09-12T23:00:45;99988.56;;;19.85;55.98
1652;BME280;823;49.028;8.454;2022-09-12T23:05:46;99992.00;;;19.74;56.04
1652;BME280;823;49.028;8.454;2022-09-12T23:10:47;99981.63;;;19.61;56.87
1652;BME280;823;49.028;8.454;2022-09-12T23:15:47;99966.94;;;19.47;57.19
1652;BME280;823;49.028;8.454;2022-09-12T23:20:56;99975.88;;;19.56;57.27
1652;BME280;823;49.028;8.454;2022-09-12T23:26:05;99984.56;;;19.45;57.66
1652;BME280;823;49.028;8.454;2022-09-12T23:31:07;99971.59;;;19.44;57.46
1652;BME280;823;49.028;8.454;2022-09-12T23:36:11;99958.25;;;19.47;57.28
1652;BME280;823;49.028;8.454;2022-09-12T23:41:15;99977.19;;;19.50;56.96
1652;BME280;823;49.028;8.454;2022-09-12T23:46:17;99977.91;;;19.41;57.23
1652;BME280;823;49.028;8.454;2022-09-12T23:51:18;99973.50;;;19.42;56.62
1652;BME280;823;49.028;8.454;2022-09-12T23:56:20;99979.44;;;19.44;56.71
